createdAt,value
2019-05-23T00:00:01.000Z,10.687
2019-05-23T00:04:01.000Z,10.75
2019-05-23T00:13:02.000Z,10.687
2019-05-23T00:21:02.000Z,10.687
2019-05-23T00:22:01.000Z,10.687
2019-05-23T00:23:01.000Z,10.687
2019-05-23T00:24:01.000Z,10.687
2019-05-23T00:25:01.000Z,10.625
2019-05-23T00:25:01.000Z,10.625
2019-05-23T00:26:01.000Z,10.625
2019-05-23T00:27:01.000Z,10.625
2019-05-23T00:28:01.000Z,10.625
2019-05-23T00:29:01.000Z,10.562
2019-05-23T00:30:02.000Z,10.562
2019-05-23T00:31:01.000Z,10.562
2019-05-23T00:32:02.000Z,10.562
2019-05-23T00:33:02.000Z,10.562
2019-05-23T00:34:02.000Z,10.562
2019-05-23T00:35:02.000Z,10.562
2019-05-23T00:35:02.000Z,10.562
2019-05-23T00:36:02.000Z,10.5
2019-05-23T00:37:01.000Z,10.5
2019-05-23T00:38:01.000Z,10.5
2019-05-23T00:39:01.000Z,10.5
2019-05-23T00:40:01.000Z,10.5
2019-05-23T00:41:01.000Z,10.5
2019-05-23T00:42:01.000Z,10.437
2019-05-23T00:43:01.000Z,10.437
2019-05-23T00:44:01.000Z,10.437
2019-05-23T00:45:01.000Z,10.437
2019-05-23T00:46:01.000Z,10.437
2019-05-23T00:47:01.000Z,10.437
2019-05-23T00:48:02.000Z,10.437
2019-05-23T00:48:02.000Z,10.437
2019-05-23T00:49:02.000Z,10.437
2019-05-23T00:50:02.000Z,10.437
2019-05-23T00:51:01.000Z,10.375
2019-05-23T00:52:02.000Z,10.375
2019-05-23T00:53:02.000Z,10.312
2019-05-23T00:54:01.000Z,10.375
2019-05-23T00:55:01.000Z,10.375
2019-05-23T00:56:02.000Z,10.312
2019-05-23T00:57:02.000Z,10.312
2019-05-23T00:58:01.000Z,10.25
2019-05-23T00:59:01.000Z,10.25
2019-05-23T01:00:01.000Z,10.25
2019-05-23T01:01:02.000Z,10.25
2019-05-23T01:02:02.000Z,10.25
2019-05-23T01:02:02.000Z,10.25
2019-05-23T01:03:02.000Z,10.25
2019-05-23T01:04:02.000Z,10.187
2019-05-23T01:05:02.000Z,10.187
2019-05-23T01:06:02.000Z,10.125
2019-05-23T01:07:02.000Z,10.125
2019-05-23T01:08:02.000Z,10.125
2019-05-23T01:09:02.000Z,10.062
2019-05-23T01:10:01.000Z,10.062
2019-05-23T01:11:01.000Z,10.062
2019-05-23T01:12:01.000Z,10
2019-05-23T01:13:01.000Z,10
2019-05-23T01:14:01.000Z,10
2019-05-23T01:15:01.000Z,9.937
2019-05-23T01:15:02.000Z,9.937
2019-05-23T01:16:01.000Z,9.937
2019-05-23T01:17:01.000Z,9.937
2019-05-23T01:18:01.000Z,9.937
2019-05-23T01:19:01.000Z,9.937
2019-05-23T01:20:01.000Z,9.875
2019-05-23T01:21:01.000Z,9.875
2019-05-23T01:22:01.000Z,9.812
2019-05-23T01:23:01.000Z,9.812
2019-05-23T01:24:01.000Z,9.812
2019-05-23T01:25:01.000Z,9.75
2019-05-23T01:26:02.000Z,9.75
2019-05-23T01:27:02.000Z,9.75
2019-05-23T01:28:02.000Z,9.687
2019-05-23T01:29:01.000Z,9.687
2019-05-23T01:29:02.000Z,9.687
2019-05-23T01:30:01.000Z,9.625
2019-05-23T01:31:02.000Z,9.625
2019-05-23T01:32:01.000Z,9.625
2019-05-23T01:33:01.000Z,9.562
2019-05-23T01:34:01.000Z,9.562
2019-05-23T01:35:01.000Z,9.562
2019-05-23T01:36:01.000Z,9.562
2019-05-23T01:37:01.000Z,9.562
2019-05-23T01:38:01.000Z,9.5
2019-05-23T01:39:01.000Z,9.5
2019-05-23T01:40:01.000Z,9.5
2019-05-23T01:41:01.000Z,9.437
2019-05-23T01:41:02.000Z,9.437
2019-05-23T01:42:01.000Z,9.5
2019-05-23T01:43:01.000Z,9.437
2019-05-23T01:44:01.000Z,9.5
2019-05-23T01:45:01.000Z,9.437
2019-05-23T01:46:02.000Z,9.437
2019-05-23T01:47:02.000Z,9.437
2019-05-23T01:48:02.000Z,9.375
2019-05-23T01:49:02.000Z,9.312
2019-05-23T01:50:01.000Z,9.312
2019-05-23T01:51:01.000Z,9.312
2019-05-23T01:51:02.000Z,9.312
2019-05-23T01:52:01.000Z,9.312
2019-05-23T01:53:01.000Z,9.25
2019-05-23T01:54:01.000Z,9.25
2019-05-23T01:55:01.000Z,9.187
2019-05-23T01:56:01.000Z,9.187
2019-05-23T01:57:01.000Z,9.187
2019-05-23T01:58:01.000Z,9.125
2019-05-23T01:59:01.000Z,9.062
2019-05-23T02:00:01.000Z,9.062
2019-05-23T02:01:01.000Z,9.062
2019-05-23T02:02:01.000Z,9.062
2019-05-23T02:03:02.000Z,9.062
2019-05-23T02:04:01.000Z,9
2019-05-23T02:05:01.000Z,9
2019-05-23T02:06:01.000Z,8.937
2019-05-23T02:06:02.000Z,8.937
2019-05-23T02:07:01.000Z,8.875
2019-05-23T02:08:01.000Z,8.875
2019-05-23T02:09:01.000Z,8.812
2019-05-23T02:10:01.000Z,8.75
2019-05-23T02:11:01.000Z,8.75
2019-05-23T02:12:01.000Z,8.687
2019-05-23T02:13:01.000Z,8.687
2019-05-23T02:14:02.000Z,8.625
2019-05-23T02:15:02.000Z,8.625
2019-05-23T02:16:02.000Z,8.562
2019-05-23T02:17:02.000Z,8.562
2019-05-23T02:18:01.000Z,8.437
2019-05-23T02:19:01.000Z,8.375
2019-05-23T02:19:01.000Z,8.375
2019-05-23T02:20:02.000Z,8.312
2019-05-23T02:21:02.000Z,8.25
2019-05-23T02:22:01.000Z,8.25
2019-05-23T02:23:01.000Z,8.187
2019-05-23T02:24:01.000Z,8.125
2019-05-23T02:25:01.000Z,8.062
2019-05-23T02:26:01.000Z,7.937
2019-05-23T02:27:01.000Z,7.875
2019-05-23T02:28:01.000Z,7.875
2019-05-23T02:29:01.000Z,7.812
2019-05-23T02:30:01.000Z,7.812
2019-05-23T02:31:01.000Z,7.75
2019-05-23T02:32:01.000Z,7.75
2019-05-23T02:32:02.000Z,7.75
2019-05-23T02:33:01.000Z,7.687
2019-05-23T02:34:01.000Z,7.687
2019-05-23T02:35:01.000Z,7.625
2019-05-23T02:36:01.000Z,7.562
2019-05-23T02:37:02.000Z,7.562
2019-05-23T02:38:02.000Z,7.562
2019-05-23T02:39:02.000Z,7.562
2019-05-23T02:40:01.000Z,7.562
2019-05-23T02:40:02.000Z,7.562
2019-05-23T02:41:01.000Z,7.562
2019-05-23T02:41:01.000Z,7.562
2019-05-23T02:42:01.000Z,7.5
2019-05-23T02:42:01.000Z,7.5
2019-05-23T02:43:01.000Z,7.437
2019-05-23T02:43:02.000Z,7.437
2019-05-23T02:44:01.000Z,7.437
2019-05-23T02:44:02.000Z,7.437
2019-05-23T02:45:01.000Z,7.375
2019-05-23T02:45:01.000Z,7.375
2019-05-23T02:46:01.000Z,7.312
2019-05-23T02:47:01.000Z,7.375
2019-05-23T02:48:01.000Z,7.437
2019-05-23T02:49:02.000Z,7.375
2019-05-23T02:50:02.000Z,7.375
2019-05-23T02:51:02.000Z,7.375
2019-05-23T02:52:02.000Z,7.312
2019-05-23T02:53:02.000Z,7.312
2019-05-23T02:54:01.000Z,7.25
2019-05-23T02:54:02.000Z,7.25
2019-05-23T02:55:02.000Z,7.187
2019-05-23T02:56:01.000Z,7.187
2019-05-23T02:57:01.000Z,7.187
2019-05-23T02:58:02.000Z,7.187
2019-05-23T02:59:02.000Z,7.187
2019-05-23T03:00:02.000Z,7.187
2019-05-23T03:01:01.000Z,7.125
2019-05-23T03:02:01.000Z,7.125
2019-05-23T03:02:01.000Z,7.125
2019-05-23T03:03:02.000Z,7.062
2019-05-23T03:04:01.000Z,7.062
2019-05-23T03:05:01.000Z,7.062
2019-05-23T03:06:01.000Z,7.062
2019-05-23T03:07:01.000Z,7
2019-05-23T03:08:01.000Z,7
2019-05-23T03:09:01.000Z,7.062
2019-05-23T03:10:02.000Z,7
2019-05-23T03:11:02.000Z,7.062
2019-05-23T03:12:02.000Z,7
2019-05-23T03:13:02.000Z,7
2019-05-23T03:14:02.000Z,7
2019-05-23T03:15:01.000Z,7
2019-05-23T03:15:02.000Z,7
2019-05-23T03:16:01.000Z,6.937
2019-05-23T03:17:01.000Z,6.875
2019-05-23T03:18:01.000Z,6.875
2019-05-23T03:19:02.000Z,6.812
2019-05-23T03:20:01.000Z,6.812
2019-05-23T03:21:02.000Z,6.75
2019-05-23T03:22:02.000Z,6.75
2019-05-23T03:23:02.000Z,6.812
2019-05-23T03:24:02.000Z,6.812
2019-05-23T03:25:02.000Z,6.812
2019-05-23T03:26:01.000Z,6.812
2019-05-23T03:27:01.000Z,6.812
2019-05-23T03:27:02.000Z,6.812
2019-05-23T03:28:01.000Z,6.75
2019-05-23T03:29:01.000Z,6.812
2019-05-23T03:30:01.000Z,6.812
2019-05-23T03:31:01.000Z,6.75
2019-05-23T03:32:02.000Z,6.687
2019-05-23T03:33:01.000Z,6.625
2019-05-23T03:34:01.000Z,6.625
2019-05-23T03:35:01.000Z,6.687
2019-05-23T03:36:01.000Z,6.687
2019-05-23T03:37:01.000Z,6.625
2019-05-23T03:38:01.000Z,6.625
2019-05-23T03:39:02.000Z,6.625
2019-05-23T03:40:01.000Z,6.625
2019-05-23T03:41:01.000Z,6.687
2019-05-23T03:41:01.000Z,6.687
2019-05-23T03:42:01.000Z,6.75
2019-05-23T03:43:01.000Z,6.75
2019-05-23T03:44:02.000Z,6.687
2019-05-23T03:45:02.000Z,6.625
2019-05-23T03:46:02.000Z,6.562
2019-05-23T03:47:02.000Z,6.562
2019-05-23T03:48:02.000Z,6.562
2019-05-23T03:49:02.000Z,6.562
2019-05-23T03:50:01.000Z,6.625
2019-05-23T03:51:02.000Z,6.625
2019-05-23T03:52:01.000Z,6.562
2019-05-23T03:53:01.000Z,6.625
2019-05-23T03:53:01.000Z,6.625
2019-05-23T03:54:01.000Z,6.625
2019-05-23T03:55:01.000Z,6.687
2019-05-23T03:56:01.000Z,6.687
2019-05-23T03:57:01.000Z,6.687
2019-05-23T03:58:01.000Z,6.625
2019-05-23T03:59:02.000Z,6.687
2019-05-23T04:00:02.000Z,6.75
2019-05-23T04:01:02.000Z,6.75
2019-05-23T04:02:01.000Z,6.75
2019-05-23T04:03:01.000Z,6.75
2019-05-23T04:04:01.000Z,7.125
2019-05-23T04:05:01.000Z,7.687
2019-05-23T04:06:01.000Z,8.25
2019-05-23T04:06:01.000Z,8.25
2019-05-23T04:07:01.000Z,8.812
2019-05-23T04:08:01.000Z,9.25
2019-05-23T04:09:02.000Z,9.75
2019-05-23T04:10:01.000Z,10.187
2019-05-23T04:11:01.000Z,10.625
2019-05-23T04:12:01.000Z,10.937
2019-05-23T04:13:01.000Z,11.312
2019-05-23T04:14:01.000Z,11.687
2019-05-23T04:15:01.000Z,12
2019-05-23T04:15:01.000Z,12
2019-05-23T04:16:01.000Z,12.187
2019-05-23T04:17:01.000Z,12.437
2019-05-23T04:18:01.000Z,12.687
2019-05-23T04:19:01.000Z,13
2019-05-23T04:20:01.000Z,13.187
2019-05-23T04:21:01.000Z,13.187
2019-05-23T04:22:01.000Z,13.125
2019-05-23T04:23:01.000Z,12.875
2019-05-23T04:24:01.000Z,12.875
2019-05-23T04:25:02.000Z,13.062
2019-05-23T04:26:02.000Z,13.125
2019-05-23T04:27:02.000Z,13.375
2019-05-23T04:28:02.000Z,13.437
2019-05-23T04:28:02.000Z,13.437
2019-05-23T04:29:02.000Z,13.812
2019-05-23T04:30:01.000Z,14.125
2019-05-23T04:31:01.000Z,14.125
2019-05-23T04:32:01.000Z,14.187
2019-05-23T04:33:01.000Z,14.312
2019-05-23T04:34:01.000Z,14.437
2019-05-23T04:35:01.000Z,14.562
2019-05-23T04:36:01.000Z,14.562
2019-05-23T04:37:02.000Z,14.75
2019-05-23T04:38:01.000Z,14.812
2019-05-23T04:39:02.000Z,14.875
2019-05-23T04:40:02.000Z,14.937
2019-05-23T04:41:01.000Z,15.187
2019-05-23T04:41:02.000Z,15.187
2019-05-23T04:42:01.000Z,15.312
2019-05-23T04:43:01.000Z,15
2019-05-23T04:44:01.000Z,14.937
2019-05-23T04:45:01.000Z,15.25
2019-05-23T04:46:01.000Z,15.5
2019-05-23T04:47:01.000Z,15.687
2019-05-23T04:48:01.000Z,15.625
2019-05-23T04:49:01.000Z,15.562
2019-05-23T04:50:01.000Z,15.25
2019-05-23T04:51:01.000Z,15.25
2019-05-23T04:52:01.000Z,15.375
2019-05-23T04:53:01.000Z,15.625
2019-05-23T04:54:01.000Z,15.812
2019-05-23T04:55:01.000Z,15.875
2019-05-23T04:55:01.000Z,15.875
2019-05-23T04:56:01.000Z,16.125
2019-05-23T04:57:01.000Z,16.062
2019-05-23T04:58:01.000Z,16.25
2019-05-23T04:59:01.000Z,16.562
2019-05-23T05:00:01.000Z,16.75
2019-05-23T05:01:01.000Z,16.687
2019-05-23T05:02:01.000Z,16.437
2019-05-23T05:03:01.000Z,16.312
2019-05-23T05:04:01.000Z,16.375
2019-05-23T05:05:02.000Z,16.812
2019-05-23T05:06:01.000Z,17.125
2019-05-23T05:07:01.000Z,17.687
2019-05-23T05:08:01.000Z,18.062
2019-05-23T05:08:01.000Z,18.062
2019-05-23T05:09:01.000Z,18.312
2019-05-23T05:10:02.000Z,18.437
2019-05-23T05:11:02.000Z,18.437
2019-05-23T05:12:02.000Z,18.562
2019-05-23T05:13:01.000Z,18.687
2019-05-23T05:14:01.000Z,18.625
2019-05-23T05:15:01.000Z,18.687
2019-05-23T05:16:01.000Z,18.5
2019-05-23T05:17:01.000Z,18.562
2019-05-23T05:18:01.000Z,18.687
2019-05-23T05:19:01.000Z,18.875
2019-05-23T05:20:01.000Z,18.625
2019-05-23T05:20:01.000Z,18.625
2019-05-23T05:21:02.000Z,18.562
2019-05-23T05:22:02.000Z,18.687
2019-05-23T05:23:02.000Z,18.875
2019-05-23T05:24:02.000Z,19.125
2019-05-23T05:25:02.000Z,19.312
2019-05-23T05:26:02.000Z,19.562
2019-05-23T05:27:02.000Z,19.125
2019-05-23T05:28:02.000Z,19.125
2019-05-23T05:29:02.000Z,19
2019-05-23T05:29:02.000Z,19
2019-05-23T05:30:01.000Z,19
2019-05-23T05:31:01.000Z,19.187
2019-05-23T05:32:01.000Z,19.125
2019-05-23T05:33:01.000Z,18.937
2019-05-23T05:34:02.000Z,18.812
2019-05-23T05:35:01.000Z,18.75
2019-05-23T05:36:01.000Z,18.5
2019-05-23T05:37:01.000Z,18.375
2019-05-23T05:38:01.000Z,18.437
2019-05-23T05:39:01.000Z,18.437
2019-05-23T05:40:01.000Z,18.25
2019-05-23T05:41:01.000Z,18.437
2019-05-23T05:42:01.000Z,18.875
2019-05-23T05:42:01.000Z,18.875
2019-05-23T05:43:01.000Z,19.062
2019-05-23T05:44:01.000Z,19.125
2019-05-23T05:45:01.000Z,18.812
2019-05-23T05:46:01.000Z,18.5
2019-05-23T05:47:01.000Z,18.5
2019-05-23T05:48:02.000Z,18.562
2019-05-23T05:49:01.000Z,18.437
2019-05-23T05:50:01.000Z,18.437
2019-05-23T05:51:02.000Z,18.437
2019-05-23T05:52:02.000Z,18.312
2019-05-23T05:53:01.000Z,18.562
2019-05-23T05:54:02.000Z,18.687
2019-05-23T05:55:02.000Z,18.875
2019-05-23T05:56:01.000Z,19.062
2019-05-23T05:56:02.000Z,19.062
2019-05-23T05:57:01.000Z,19.312
2019-05-23T05:58:01.000Z,19.25
2019-05-23T05:59:01.000Z,19.187
2019-05-23T06:00:01.000Z,19.375
2019-05-23T06:01:01.000Z,19.187
2019-05-23T06:02:02.000Z,19.125
2019-05-23T06:03:01.000Z,18.937
2019-05-23T06:04:01.000Z,19.062
2019-05-23T06:05:01.000Z,19.125
2019-05-23T06:06:01.000Z,19.375
2019-05-23T06:07:01.000Z,19.687
2019-05-23T06:08:01.000Z,20
2019-05-23T06:09:02.000Z,20
2019-05-23T06:10:01.000Z,19.937
2019-05-23T06:10:01.000Z,19.937
2019-05-23T06:11:01.000Z,20.062
2019-05-23T06:12:01.000Z,19.812
2019-05-23T06:13:01.000Z,19.875
2019-05-23T06:14:02.000Z,19.875
2019-05-23T06:15:02.000Z,19.687
2019-05-23T06:16:01.000Z,19.562
2019-05-23T06:17:01.000Z,19.687
2019-05-23T06:18:01.000Z,20.187
2019-05-23T06:19:01.000Z,20.437
2019-05-23T06:20:01.000Z,20.562
2019-05-23T06:21:01.000Z,20.937
2019-05-23T06:22:01.000Z,21.375
2019-05-23T06:23:01.000Z,21.562
2019-05-23T06:23:01.000Z,21.562
2019-05-23T06:24:01.000Z,21.375
2019-05-23T06:25:01.000Z,21.375
2019-05-23T06:26:02.000Z,21.562
2019-05-23T06:27:01.000Z,21.187
2019-05-23T06:28:01.000Z,20.375
2019-05-23T06:29:01.000Z,20.062
2019-05-23T06:30:01.000Z,19.812
2019-05-23T06:31:02.000Z,20.062
2019-05-23T06:32:02.000Z,20.062
2019-05-23T06:33:02.000Z,19.875
2019-05-23T06:34:02.000Z,19.562
2019-05-23T06:35:02.000Z,19.437
2019-05-23T06:35:02.000Z,19.437
2019-05-23T06:36:02.000Z,19
2019-05-23T06:37:02.000Z,18.812
2019-05-23T06:38:01.000Z,18.875
2019-05-23T06:39:02.000Z,18.437
2019-05-23T06:40:01.000Z,18.187
2019-05-23T06:41:01.000Z,17.875
2019-05-23T06:42:01.000Z,17.5
2019-05-23T06:43:01.000Z,17.125
2019-05-23T06:44:02.000Z,16.875
2019-05-23T06:45:02.000Z,16.812
2019-05-23T06:45:02.000Z,16.812
2019-05-23T06:46:02.000Z,16.687
2019-05-23T06:47:02.000Z,16.562
2019-05-23T06:48:02.000Z,16.937
2019-05-23T06:49:01.000Z,17.125
2019-05-23T06:50:01.000Z,17.437
2019-05-23T06:51:02.000Z,17.875
2019-05-23T06:52:02.000Z,18.75
2019-05-23T06:53:01.000Z,19.437
2019-05-23T06:54:01.000Z,20.125
2019-05-23T06:55:01.000Z,20.125
2019-05-23T06:56:02.000Z,19.875
2019-05-23T06:57:02.000Z,19.937
2019-05-23T06:58:02.000Z,19.937
2019-05-23T06:58:02.000Z,19.937
2019-05-23T06:59:02.000Z,19.75
2019-05-23T07:00:02.000Z,19.437
2019-05-23T07:01:01.000Z,19.375
2019-05-23T07:02:01.000Z,19.937
2019-05-23T07:03:01.000Z,20.562
2019-05-23T07:04:01.000Z,20.812
2019-05-23T07:05:01.000Z,20.812
2019-05-23T07:06:01.000Z,20.812
2019-05-23T07:07:01.000Z,20.625
2019-05-23T07:08:01.000Z,20.125
2019-05-23T07:09:02.000Z,19.687
2019-05-23T07:10:01.000Z,19.875
2019-05-23T07:11:01.000Z,20.062
2019-05-23T07:12:01.000Z,20
2019-05-23T07:12:02.000Z,20
2019-05-23T07:13:01.000Z,19.75
2019-05-23T07:14:01.000Z,19.687
2019-05-23T07:15:01.000Z,19.187
2019-05-23T07:16:01.000Z,18.687
2019-05-23T07:17:01.000Z,18.5
2019-05-23T07:18:02.000Z,18.312
2019-05-23T07:19:01.000Z,18.562
2019-05-23T07:20:01.000Z,18.75
2019-05-23T07:21:01.000Z,19.312
2019-05-23T07:22:01.000Z,19.375
2019-05-23T07:23:01.000Z,19.562
2019-05-23T07:24:01.000Z,19.625
2019-05-23T07:25:01.000Z,19.937
2019-05-23T07:26:01.000Z,20.312
2019-05-23T07:26:02.000Z,20.312
2019-05-23T07:27:02.000Z,20.25
2019-05-23T07:28:02.000Z,20.375
2019-05-23T07:29:02.000Z,20
2019-05-23T07:30:02.000Z,19.75
2019-05-23T07:31:01.000Z,19.5
2019-05-23T07:32:01.000Z,19.25
2019-05-23T07:33:01.000Z,19.062
2019-05-23T07:34:01.000Z,18.625
2019-05-23T07:35:01.000Z,18.5
2019-05-23T07:36:01.000Z,18.5
2019-05-23T07:37:01.000Z,19.062
2019-05-23T07:38:01.000Z,19.187
2019-05-23T07:39:01.000Z,19.312
2019-05-23T07:40:01.000Z,19.75
2019-05-23T07:40:02.000Z,19.75
2019-05-23T07:41:01.000Z,19.75
2019-05-23T07:42:01.000Z,20.937
2019-05-23T07:43:01.000Z,21.25
2019-05-23T07:44:01.000Z,21.5
2019-05-23T07:45:01.000Z,20.875
2019-05-23T07:46:01.000Z,20.75
2019-05-23T07:47:01.000Z,20.812
2019-05-23T07:48:01.000Z,20.625
2019-05-23T07:49:01.000Z,20.687
2019-05-23T07:50:01.000Z,21.312
2019-05-23T07:51:01.000Z,21.25
2019-05-23T07:52:01.000Z,21.5
2019-05-23T07:52:01.000Z,21.5
2019-05-23T07:53:01.000Z,21.75
2019-05-23T07:54:01.000Z,21.5
2019-05-23T07:55:01.000Z,21.687
2019-05-23T07:56:02.000Z,22.125
2019-05-23T07:57:01.000Z,22.375
2019-05-23T07:58:01.000Z,22.187
2019-05-23T07:59:01.000Z,21.687
2019-05-23T08:00:01.000Z,21.5
2019-05-23T08:00:01.000Z,21.5
2019-05-23T08:01:01.000Z,21.5
2019-05-23T08:02:01.000Z,21.125
2019-05-23T08:03:02.000Z,21
2019-05-23T08:04:02.000Z,21.25
2019-05-23T08:05:01.000Z,21.187
2019-05-23T08:06:01.000Z,21.437
2019-05-23T08:07:01.000Z,21.375
2019-05-23T08:08:01.000Z,21.5
2019-05-23T08:09:01.000Z,21.625
2019-05-23T08:10:01.000Z,21.625
2019-05-23T08:11:01.000Z,21.437
2019-05-23T08:12:01.000Z,21.437
2019-05-23T08:13:01.000Z,21.875
2019-05-23T08:14:01.000Z,21.75
2019-05-23T08:14:01.000Z,21.75
2019-05-23T08:15:02.000Z,21.5
2019-05-23T08:16:01.000Z,21
2019-05-23T08:17:01.000Z,20.875
2019-05-23T08:18:01.000Z,21
2019-05-23T08:19:02.000Z,21.312
2019-05-23T08:20:01.000Z,21.687
2019-05-23T08:21:01.000Z,21.687
2019-05-23T08:22:01.000Z,21.625
2019-05-23T08:23:01.000Z,21.687
2019-05-23T08:24:01.000Z,21.625
2019-05-23T08:25:01.000Z,21.625
2019-05-23T08:26:01.000Z,21.687
2019-05-23T08:27:01.000Z,21.5
2019-05-23T08:27:02.000Z,21.5
2019-05-23T08:28:01.000Z,21.5
2019-05-23T08:29:02.000Z,21.375
2019-05-23T08:30:02.000Z,21
2019-05-23T08:31:01.000Z,20.75
2019-05-23T08:32:01.000Z,20.812
2019-05-23T08:33:01.000Z,20.812
2019-05-23T08:34:01.000Z,20.312
2019-05-23T08:35:01.000Z,20.125
2019-05-23T08:36:01.000Z,20.187
2019-05-23T08:37:02.000Z,20.375
2019-05-23T08:38:02.000Z,20.125
2019-05-23T08:39:02.000Z,20.312
2019-05-23T08:40:01.000Z,20.625
2019-05-23T08:41:01.000Z,20.812
2019-05-23T08:41:02.000Z,20.812
2019-05-23T08:42:01.000Z,21.187
2019-05-23T08:43:01.000Z,21.312
2019-05-23T08:44:01.000Z,21.812
2019-05-23T08:45:01.000Z,22.125
2019-05-23T08:46:02.000Z,22.562
2019-05-23T08:47:02.000Z,22.75
2019-05-23T08:48:01.000Z,22.375
2019-05-23T08:49:01.000Z,22.125
2019-05-23T08:50:01.000Z,22.5
2019-05-23T08:51:01.000Z,22.687
2019-05-23T08:52:01.000Z,22.312
2019-05-23T08:53:01.000Z,22.312
2019-05-23T08:54:01.000Z,22.062
2019-05-23T08:54:02.000Z,22.125
2019-05-23T08:55:02.000Z,22.187
2019-05-23T08:56:01.000Z,22.125
2019-05-23T08:57:02.000Z,22.375
2019-05-23T08:58:01.000Z,22.75
2019-05-23T08:59:01.000Z,22.562
2019-05-23T09:00:01.000Z,22.812
2019-05-23T09:01:01.000Z,22.375
2019-05-23T09:02:01.000Z,22.187
2019-05-23T09:03:01.000Z,22.437
2019-05-23T09:04:01.000Z,22.875
2019-05-23T09:04:01.000Z,22.875
2019-05-23T09:05:01.000Z,23.375
2019-05-23T09:06:01.000Z,23.625
2019-05-23T09:07:01.000Z,23.687
2019-05-23T09:08:01.000Z,23.75
2019-05-23T09:09:02.000Z,23.875
2019-05-23T09:10:01.000Z,23.812
2019-05-23T09:11:01.000Z,23.687
2019-05-23T09:12:01.000Z,23.562
2019-05-23T09:13:01.000Z,23.812
2019-05-23T09:13:01.000Z,23.812
2019-05-23T09:14:01.000Z,24
2019-05-23T09:15:01.000Z,24.187
2019-05-23T09:16:01.000Z,23.875
2019-05-23T09:17:01.000Z,24
2019-05-23T09:18:01.000Z,23.437
2019-05-23T09:19:01.000Z,22.937
2019-05-23T09:20:01.000Z,22.5
2019-05-23T09:21:02.000Z,22.562
2019-05-23T09:22:01.000Z,22.687
2019-05-23T09:23:01.000Z,22.875
2019-05-23T09:24:01.000Z,23.125
2019-05-23T09:25:01.000Z,23.437
2019-05-23T09:26:02.000Z,23.062
2019-05-23T09:26:02.000Z,23.062
2019-05-23T09:27:02.000Z,22.937
2019-05-23T09:28:01.000Z,22.937
2019-05-23T09:29:01.000Z,22.062
2019-05-23T09:30:01.000Z,21.75
2019-05-23T09:32:02.000Z,21.687
2019-05-23T09:33:02.000Z,21.812
2019-05-23T09:34:02.000Z,21.937
2019-05-23T09:35:01.000Z,22.125
2019-05-23T09:36:02.000Z,22.625
2019-05-23T09:37:02.000Z,23.125
2019-05-23T09:38:02.000Z,23.625
2019-05-23T09:39:02.000Z,24.062
2019-05-23T09:39:02.000Z,24.062
2019-05-23T09:40:02.000Z,23.812
2019-05-23T09:41:01.000Z,23.312
2019-05-23T09:42:01.000Z,22.875
2019-05-23T09:43:01.000Z,22.812
2019-05-23T09:44:01.000Z,23
2019-05-23T09:45:02.000Z,23
2019-05-23T09:46:01.000Z,23
2019-05-23T09:47:01.000Z,23.312
2019-05-23T09:48:01.000Z,23.562
2019-05-23T09:49:01.000Z,23.562
2019-05-23T09:50:01.000Z,23.062
2019-05-23T09:51:01.000Z,22.312
2019-05-23T09:52:01.000Z,21.812
2019-05-23T09:52:01.000Z,21.812
2019-05-23T09:53:01.000Z,21.812
2019-05-23T09:54:01.000Z,21.375
2019-05-23T09:55:01.000Z,20.937
2019-05-23T09:56:01.000Z,21
2019-05-23T09:57:01.000Z,20.937
2019-05-23T09:58:01.000Z,21.125
2019-05-23T09:59:02.000Z,21.375
2019-05-23T10:00:01.000Z,21.75
2019-05-23T10:01:02.000Z,22.312
2019-05-23T10:02:01.000Z,22.5
2019-05-23T10:03:01.000Z,23
2019-05-23T10:04:02.000Z,23.125
2019-05-23T10:05:02.000Z,23
2019-05-23T10:05:02.000Z,23
2019-05-23T10:06:02.000Z,22.687
2019-05-23T10:07:01.000Z,22.625
2019-05-23T10:08:02.000Z,22.187
2019-05-23T10:09:02.000Z,21.625
2019-05-23T10:10:01.000Z,21.625
2019-05-23T10:11:01.000Z,21.562
2019-05-23T10:12:01.000Z,21.562
2019-05-23T10:13:01.000Z,21.687
2019-05-23T10:14:01.000Z,21.625
2019-05-23T10:15:01.000Z,21.5
2019-05-23T10:16:01.000Z,21.687
2019-05-23T10:17:02.000Z,22
2019-05-23T10:17:02.000Z,22
2019-05-23T10:18:01.000Z,22.25
2019-05-23T10:19:01.000Z,22.125
2019-05-23T10:20:01.000Z,22.125
2019-05-23T10:21:01.000Z,22
2019-05-23T10:22:01.000Z,22.125
2019-05-23T10:23:01.000Z,22.125
2019-05-23T10:24:01.000Z,22.125
2019-05-23T10:25:01.000Z,22.125
2019-05-23T10:26:01.000Z,22.375
2019-05-23T10:27:01.000Z,22.437
2019-05-23T10:27:02.000Z,22.437
2019-05-23T10:28:01.000Z,22.375
2019-05-23T10:29:01.000Z,22.312
2019-05-23T10:30:01.000Z,22.562
2019-05-23T10:31:02.000Z,22.625
2019-05-23T10:32:02.000Z,22.562
2019-05-23T10:33:02.000Z,22.187
2019-05-23T10:34:01.000Z,22.062
2019-05-23T10:35:01.000Z,21.812
2019-05-23T10:36:01.000Z,21.75
2019-05-23T10:37:01.000Z,21.687
2019-05-23T10:38:01.000Z,22.062
2019-05-23T10:39:01.000Z,22.312
2019-05-23T10:40:01.000Z,22.062
2019-05-23T10:40:01.000Z,22.062
2019-05-23T10:41:01.000Z,22
2019-05-23T10:42:01.000Z,22
2019-05-23T10:43:02.000Z,22.187
2019-05-23T10:44:02.000Z,22.562
2019-05-23T10:45:02.000Z,22.437
2019-05-23T10:46:02.000Z,22.562
2019-05-23T10:47:01.000Z,22.625
2019-05-23T10:48:01.000Z,22.812
2019-05-23T10:49:02.000Z,23
2019-05-23T10:50:02.000Z,23.062
2019-05-23T10:51:02.000Z,22.937
2019-05-23T10:52:02.000Z,22.625
2019-05-23T10:53:02.000Z,22.5
2019-05-23T10:53:02.000Z,22.5
2019-05-23T10:54:01.000Z,22.437
2019-05-23T10:55:01.000Z,22.5
2019-05-23T10:56:02.000Z,22.437
2019-05-23T10:57:02.000Z,22.375
2019-05-23T10:58:02.000Z,22.625
2019-05-23T10:59:01.000Z,22.812
2019-05-23T11:00:01.000Z,23.062
2019-05-23T11:01:01.000Z,23.125
2019-05-23T11:02:01.000Z,23.312
2019-05-23T11:03:01.000Z,23.062
2019-05-23T11:04:02.000Z,22.75
2019-05-23T11:05:02.000Z,22.312
2019-05-23T11:06:01.000Z,22.187
2019-05-23T11:07:01.000Z,22.187
2019-05-23T11:07:02.000Z,22.187
2019-05-23T11:08:01.000Z,21.75
2019-05-23T11:09:01.000Z,21.312
2019-05-23T11:10:01.000Z,21.312
2019-05-23T11:11:01.000Z,21.437
2019-05-23T11:12:01.000Z,21.312
2019-05-23T11:13:02.000Z,21.625
2019-05-23T11:14:02.000Z,21.75
2019-05-23T11:15:01.000Z,21.875
2019-05-23T11:16:01.000Z,21.875
2019-05-23T11:17:01.000Z,21.875
2019-05-23T11:18:01.000Z,21.687
2019-05-23T11:19:01.000Z,21.812
2019-05-23T11:20:01.000Z,22.062
2019-05-23T11:21:02.000Z,21.875
2019-05-23T11:21:02.000Z,21.875
2019-05-23T11:22:02.000Z,21.312
2019-05-23T11:23:02.000Z,21
2019-05-23T11:24:02.000Z,20.875
2019-05-23T11:25:01.000Z,20.75
2019-05-23T11:26:02.000Z,20.75
2019-05-23T11:27:02.000Z,20.812
2019-05-23T11:28:01.000Z,20.75
2019-05-23T11:29:01.000Z,20.75
2019-05-23T11:30:01.000Z,20.687
2019-05-23T11:31:01.000Z,20.437
2019-05-23T11:32:01.000Z,20.312
2019-05-23T11:32:01.000Z,20.437
2019-05-23T11:33:02.000Z,20.562
2019-05-23T11:34:01.000Z,20.25
2019-05-23T11:35:01.000Z,20.375
2019-05-23T11:36:02.000Z,20.312
2019-05-23T11:37:02.000Z,20.187
2019-05-23T11:38:02.000Z,20.187
2019-05-23T11:39:02.000Z,20.125
2019-05-23T11:40:01.000Z,20
2019-05-23T11:41:01.000Z,20
2019-05-23T11:42:01.000Z,19.75
2019-05-23T11:42:02.000Z,19.75
2019-05-23T11:43:02.000Z,19.5
2019-05-23T11:44:01.000Z,19.75
2019-05-23T11:45:02.000Z,19.75
2019-05-23T11:46:01.000Z,20.25
2019-05-23T11:47:01.000Z,20.375
2019-05-23T11:48:01.000Z,20.375
2019-05-23T11:49:01.000Z,20.312
2019-05-23T11:50:01.000Z,20.125
2019-05-23T11:51:02.000Z,20.187
2019-05-23T11:52:01.000Z,20.312
2019-05-23T11:53:02.000Z,20.625
2019-05-23T11:54:02.000Z,20.937
2019-05-23T11:55:01.000Z,21.187
2019-05-23T11:56:01.000Z,21.562
2019-05-23T11:56:02.000Z,21.562
2019-05-23T11:57:01.000Z,21.687
2019-05-23T11:58:01.000Z,21.5
2019-05-23T11:59:01.000Z,21.187
2019-05-23T12:00:01.000Z,21
2019-05-23T12:01:02.000Z,20.812
2019-05-23T12:02:02.000Z,20.562
2019-05-23T12:03:02.000Z,20.437